sensor_id;sensor_type;location;lat;lon;timestamp;P1;durP1;ratioP1;P2;durP2;ratioP2
27580;SDS011;15013;52.298;7.978;2022-08-04T00:00:23;16.70;;;4.97;;
27580;SDS011;15013;52.298;7.978;2022-08-04T00:10:38;14.95;;;4.63;;
27580;SDS011;15013;52.298;7.978;2022-08-04T00:15:38;10.52;;;4.60;;
27580;SDS011;15013;52.298;7.978;2022-08-04T00:20:39;8.20;;;4.45;;
27580;SDS011;15013;52.298;7.978;2022-08-04T00:25:41;9.15;;;5.00;;
27580;SDS011;15013;52.298;7.978;2022-08-04T00:30:43;10.77;;;4.80;;
27580;SDS011;15013;52.298;7.978;2022-08-04T00:35:44;13.50;;;4.97;;
27580;SDS011;15013;52.298;7.978;2022-08-04T00:51:14;18.88;;;4.90;;
27580;SDS011;15013;52.298;7.978;2022-08-04T01:01:49;21.25;;;5.60;;
27580;SDS011;15013;52.298;7.978;2022-08-04T01:16:52;19.10;;;5.90;;
27580;SDS011;15013;52.298;7.978;2022-08-04T01:27:08;12.55;;;4.97;;
27580;SDS011;15013;52.298;7.978;2022-08-04T01:42:22;17.35;;;5.40;;
27580;SDS011;15013;52.298;7.978;2022-08-04T01:47:25;20.08;;;5.40;;
27580;SDS011;15013;52.298;7.978;2022-08-04T01:52:27;17.15;;;5.18;;
27580;SDS011;15013;52.298;7.978;2022-08-04T01:57:28;15.63;;;5.43;;
27580;SDS011;15013;52.298;7.978;2022-08-04T02:02:30;14.90;;;5.07;;
27580;SDS011;15013;52.298;7.978;2022-08-04T02:22:46;15.88;;;5.15;;
27580;SDS011;15013;52.298;7.978;2022-08-04T02:32:48;15.88;;;5.13;;
27580;SDS011;15013;52.298;7.978;2022-08-04T02:37:52;19.40;;;5.65;;
27580;SDS011;15013;52.298;7.978;2022-08-04T02:42:55;14.63;;;5.27;;
27580;SDS011;15013;52.298;7.978;2022-08-04T02:47:56;16.45;;;5.38;;
27580;SDS011;15013;52.298;7.978;2022-08-04T02:53:01;15.68;;;5.32;;
27580;SDS011;15013;52.298;7.978;2022-08-04T02:58:02;18.20;;;5.43;;
27580;SDS011;15013;52.298;7.978;2022-08-04T04:00:50;13.90;;;5.45;;
27580;SDS011;15013;52.298;7.978;2022-08-04T04:11:18;16.15;;;5.82;;
27580;SDS011;15013;52.298;7.978;2022-08-04T04:16:34;11.07;;;5.20;;
27580;SDS011;15013;52.298;7.978;2022-08-04T04:31:58;30.27;;;13.65;;
27580;SDS011;15013;52.298;7.978;2022-08-04T04:37:12;16.50;;;5.78;;
27580;SDS011;15013;52.298;7.978;2022-08-04T04:47:32;16.63;;;6.60;;
27580;SDS011;15013;52.298;7.978;2022-08-04T04:52:40;19.45;;;7.15;;
27580;SDS011;15013;52.298;7.978;2022-08-04T04:57:42;21.80;;;6.97;;
27580;SDS011;15013;52.298;7.978;2022-08-04T05:18:31;22.95;;;7.10;;
27580;SDS011;15013;52.298;7.978;2022-08-04T05:23:36;21.02;;;6.43;;
27580;SDS011;15013;52.298;7.978;2022-08-04T05:28:44;15.52;;;6.05;;
27580;SDS011;15013;52.298;7.978;2022-08-04T05:33:48;22.05;;;6.15;;
27580;SDS011;15013;52.298;7.978;2022-08-04T05:38:52;22.75;;;6.82;;
27580;SDS011;15013;52.298;7.978;2022-08-04T05:43:53;20.35;;;6.03;;
27580;SDS011;15013;52.298;7.978;2022-08-04T05:48:54;18.02;;;5.78;;
27580;SDS011;15013;52.298;7.978;2022-08-04T05:53:55;19.58;;;5.78;;
27580;SDS011;15013;52.298;7.978;2022-08-04T05:58:55;13.50;;;5.13;;
27580;SDS011;15013;52.298;7.978;2022-08-04T06:03:56;14.80;;;5.90;;
27580;SDS011;15013;52.298;7.978;2022-08-04T06:08:57;17.33;;;5.63;;
27580;SDS011;15013;52.298;7.978;2022-08-04T06:13:59;18.45;;;4.80;;
27580;SDS011;15013;52.298;7.978;2022-08-04T06:19:05;16.35;;;4.85;;
27580;SDS011;15013;52.298;7.978;2022-08-04T06:24:07;20.40;;;5.17;;
27580;SDS011;15013;52.298;7.978;2022-08-04T06:29:09;15.63;;;5.00;;
27580;SDS011;15013;52.298;7.978;2022-08-04T06:34:17;14.50;;;5.70;;
27580;SDS011;15013;52.298;7.978;2022-08-04T06:39:18;12.95;;;5.47;;
27580;SDS011;15013;52.298;7.978;2022-08-04T06:44:20;15.52;;;5.07;;
27580;SDS011;15013;52.298;7.978;2022-08-04T06:49:20;13.15;;;4.93;;
27580;SDS011;15013;52.298;7.978;2022-08-04T06:54:22;13.55;;;5.13;;
27580;SDS011;15013;52.298;7.978;2022-08-04T06:59:22;13.57;;;5.03;;
27580;SDS011;15013;52.298;7.978;2022-08-04T07:04:23;14.13;;;4.57;;
27580;SDS011;15013;52.298;7.978;2022-08-04T07:09:23;9.40;;;4.53;;
27580;SDS011;15013;52.298;7.978;2022-08-04T07:14:24;10.27;;;4.97;;
27580;SDS011;15013;52.298;7.978;2022-08-04T07:19:26;17.23;;;4.80;;
27580;SDS011;15013;52.298;7.978;2022-08-04T07:24:30;12.37;;;4.63;;
27580;SDS011;15013;52.298;7.978;2022-08-04T07:29:30;6.00;;;4.22;;
27580;SDS011;15013;52.298;7.978;2022-08-04T07:34:31;10.30;;;3.97;;
27580;SDS011;15013;52.298;7.978;2022-08-04T07:39:32;12.90;;;4.72;;
27580;SDS011;15013;52.298;7.978;2022-08-04T07:44:33;10.85;;;4.18;;
27580;SDS011;15013;52.298;7.978;2022-08-04T07:49:34;10.00;;;4.07;;
27580;SDS011;15013;52.298;7.978;2022-08-04T07:54:35;12.25;;;3.92;;
27580;SDS011;15013;52.298;7.978;2022-08-04T07:59:38;10.00;;;3.88;;
27580;SDS011;15013;52.298;7.978;2022-08-04T08:04:38;14.43;;;4.20;;
27580;SDS011;15013;52.298;7.978;2022-08-04T08:09:39;12.73;;;4.13;;
27580;SDS011;15013;52.298;7.978;2022-08-04T08:14:39;7.20;;;3.80;;
27580;SDS011;15013;52.298;7.978;2022-08-04T08:19:40;8.82;;;3.95;;
27580;SDS011;15013;52.298;7.978;2022-08-04T08:24:40;8.70;;;4.37;;
27580;SDS011;15013;52.298;7.978;2022-08-04T08:29:41;7.78;;;4.05;;
27580;SDS011;15013;52.298;7.978;2022-08-04T08:34:41;8.03;;;4.17;;
27580;SDS011;15013;52.298;7.978;2022-08-04T08:39:51;6.03;;;3.53;;
27580;SDS011;15013;52.298;7.978;2022-08-04T08:50:07;6.20;;;3.85;;
27580;SDS011;15013;52.298;7.978;2022-08-04T09:11:00;7.32;;;3.10;;
27580;SDS011;15013;52.298;7.978;2022-08-04T09:16:23;5.80;;;3.22;;
27580;SDS011;15013;52.298;7.978;2022-08-04T09:26:36;5.73;;;3.33;;
27580;SDS011;15013;52.298;7.978;2022-08-04T09:31:51;6.28;;;4.00;;
27580;SDS011;15013;52.298;7.978;2022-08-04T09:37:02;9.55;;;3.90;;
27580;SDS011;15013;52.298;7.978;2022-08-04T09:42:27;7.72;;;4.03;;
27580;SDS011;15013;52.298;7.978;2022-08-04T09:47:36;5.25;;;3.50;;
27580;SDS011;15013;52.298;7.978;2022-08-04T10:03:16;4.63;;;3.80;;
27580;SDS011;15013;52.298;7.978;2022-08-04T10:08:37;8.77;;;3.53;;
27580;SDS011;15013;52.298;7.978;2022-08-04T10:13:47;6.35;;;3.33;;
27580;SDS011;15013;52.298;7.978;2022-08-04T10:24:02;6.13;;;3.30;;
27580;SDS011;15013;52.298;7.978;2022-08-04T10:29:11;4.30;;;3.15;;
27580;SDS011;15013;52.298;7.978;2022-08-04T10:34:16;3.38;;;3.05;;
27580;SDS011;15013;52.298;7.978;2022-08-04T10:39:18;3.90;;;3.28;;
27580;SDS011;15013;52.298;7.978;2022-08-04T10:44:39;4.18;;;3.50;;
27580;SDS011;15013;52.298;7.978;2022-08-04T10:49:52;3.72;;;3.42;;
27580;SDS011;15013;52.298;7.978;2022-08-04T10:54:58;4.80;;;3.47;;
27580;SDS011;15013;52.298;7.978;2022-08-04T11:00:02;3.50;;;3.20;;
27580;SDS011;15013;52.298;7.978;2022-08-04T11:10:04;3.67;;;3.30;;
27580;SDS011;15013;52.298;7.978;2022-08-04T11:15:05;5.32;;;3.45;;
27580;SDS011;15013;52.298;7.978;2022-08-04T11:25:28;6.40;;;3.13;;
27580;SDS011;15013;52.298;7.978;2022-08-04T11:30:35;3.55;;;3.25;;
27580;SDS011;15013;52.298;7.978;2022-08-04T11:35:38;7.45;;;3.42;;
27580;SDS011;15013;52.298;7.978;2022-08-04T11:40:41;4.53;;;3.10;;
27580;SDS011;15013;52.298;7.978;2022-08-04T11:45:53;3.58;;;2.97;;
27580;SDS011;15013;52.298;7.978;2022-08-04T11:50:54;9.40;;;2.88;;
27580;SDS011;15013;52.298;7.978;2022-08-04T11:55:57;5.55;;;3.08;;
27580;SDS011;15013;52.298;7.978;2022-08-04T12:01:15;3.92;;;2.40;;
27580;SDS011;15013;52.298;7.978;2022-08-04T12:06:19;4.75;;;2.72;;
27580;SDS011;15013;52.298;7.978;2022-08-04T12:21:51;7.90;;;3.13;;
27580;SDS011;15013;52.298;7.978;2022-08-04T12:27:02;8.65;;;3.83;;
27580;SDS011;15013;52.298;7.978;2022-08-04T12:32:06;8.52;;;3.75;;
27580;SDS011;15013;52.298;7.978;2022-08-04T12:42:12;8.45;;;3.65;;
27580;SDS011;15013;52.298;7.978;2022-08-04T12:47:14;6.43;;;3.67;;
27580;SDS011;15013;52.298;7.978;2022-08-04T12:52:15;7.43;;;3.15;;
27580;SDS011;15013;52.298;7.978;2022-08-04T12:57:17;6.70;;;3.30;;
27580;SDS011;15013;52.298;7.978;2022-08-04T13:02:22;6.00;;;3.75;;
27580;SDS011;15013;52.298;7.978;2022-08-04T13:07:25;7.78;;;3.33;;
27580;SDS011;15013;52.298;7.978;2022-08-04T13:12:26;9.55;;;3.75;;
27580;SDS011;15013;52.298;7.978;2022-08-04T13:17:40;9.50;;;3.50;;
27580;SDS011;15013;52.298;7.978;2022-08-04T13:22:41;9.13;;;3.88;;
27580;SDS011;15013;52.298;7.978;2022-08-04T13:27:42;26.38;;;7.82;;
27580;SDS011;15013;52.298;7.978;2022-08-04T13:32:56;18.00;;;5.28;;
27580;SDS011;15013;52.298;7.978;2022-08-04T13:37:57;11.20;;;5.30;;
27580;SDS011;15013;52.298;7.978;2022-08-04T13:42:58;19.95;;;5.00;;
27580;SDS011;15013;52.298;7.978;2022-08-04T13:47:59;8.40;;;4.75;;
27580;SDS011;15013;52.298;7.978;2022-08-04T13:53:01;7.13;;;4.47;;
27580;SDS011;15013;52.298;7.978;2022-08-04T13:58:06;7.68;;;3.63;;
27580;SDS011;15013;52.298;7.978;2022-08-04T14:03:08;8.10;;;3.42;;
27580;SDS011;15013;52.298;7.978;2022-08-04T14:08:14;9.40;;;4.00;;
27580;SDS011;15013;52.298;7.978;2022-08-04T14:13:17;5.20;;;3.80;;
27580;SDS011;15013;52.298;7.978;2022-08-04T14:18:28;6.13;;;3.42;;
27580;SDS011;15013;52.298;7.978;2022-08-04T14:23:38;6.28;;;2.95;;
27580;SDS011;15013;52.298;7.978;2022-08-04T14:28:40;8.25;;;2.80;;
27580;SDS011;15013;52.298;7.978;2022-08-04T14:33:41;8.40;;;2.73;;
27580;SDS011;15013;52.298;7.978;2022-08-04T14:38:43;6.60;;;3.00;;
27580;SDS011;15013;52.298;7.978;2022-08-04T14:43:48;3.90;;;2.92;;
27580;SDS011;15013;52.298;7.978;2022-08-04T14:48:58;4.67;;;3.00;;
27580;SDS011;15013;52.298;7.978;2022-08-04T14:53:59;3.03;;;2.22;;
27580;SDS011;15013;52.298;7.978;2022-08-04T14:59:01;2.13;;;2.03;;
27580;SDS011;15013;52.298;7.978;2022-08-04T15:04:02;6.22;;;2.63;;
27580;SDS011;15013;52.298;7.978;2022-08-04T15:09:06;3.58;;;2.10;;
27580;SDS011;15013;52.298;7.978;2022-08-04T15:14:07;4.68;;;2.40;;
27580;SDS011;15013;52.298;7.978;2022-08-04T15:19:07;2.75;;;2.50;;
27580;SDS011;15013;52.298;7.978;2022-08-04T15:24:08;6.82;;;2.45;;
27580;SDS011;15013;52.298;7.978;2022-08-04T15:29:13;4.85;;;2.70;;
27580;SDS011;15013;52.298;7.978;2022-08-04T15:34:15;5.32;;;2.45;;
27580;SDS011;15013;52.298;7.978;2022-08-04T15:49:35;3.72;;;2.78;;
27580;SDS011;15013;52.298;7.978;2022-08-04T15:54:37;5.70;;;2.50;;
27580;SDS011;15013;52.298;7.978;2022-08-04T16:05:45;3.35;;;2.70;;
27580;SDS011;15013;52.298;7.978;2022-08-04T16:10:53;2.75;;;2.40;;
27580;SDS011;15013;52.298;7.978;2022-08-04T16:20:47;4.27;;;2.80;;
27580;SDS011;15013;52.298;7.978;2022-08-04T16:25:48;3.35;;;2.88;;
27580;SDS011;15013;52.298;7.978;2022-08-04T16:30:58;5.78;;;3.03;;
27580;SDS011;15013;52.298;7.978;2022-08-04T16:35:59;4.82;;;2.92;;
27580;SDS011;15013;52.298;7.978;2022-08-04T16:41:00;4.07;;;2.75;;
27580;SDS011;15013;52.298;7.978;2022-08-04T16:46:01;4.10;;;3.45;;
27580;SDS011;15013;52.298;7.978;2022-08-04T16:51:06;4.93;;;3.22;;
27580;SDS011;15013;52.298;7.978;2022-08-04T16:56:09;3.70;;;3.38;;
27580;SDS011;15013;52.298;7.978;2022-08-04T17:01:10;8.05;;;3.58;;
27580;SDS011;15013;52.298;7.978;2022-08-04T17:06:12;4.20;;;3.33;;
27580;SDS011;15013;52.298;7.978;2022-08-04T17:11:13;8.02;;;3.67;;
27580;SDS011;15013;52.298;7.978;2022-08-04T17:16:16;3.85;;;3.33;;
27580;SDS011;15013;52.298;7.978;2022-08-04T17:21:19;7.53;;;3.47;;
27580;SDS011;15013;52.298;7.978;2022-08-04T17:26:22;7.60;;;3.38;;
27580;SDS011;15013;52.298;7.978;2022-08-04T17:31:24;7.25;;;3.60;;
27580;SDS011;15013;52.298;7.978;2022-08-04T17:36:25;5.72;;;3.85;;
27580;SDS011;15013;52.298;7.978;2022-08-04T17:41:26;7.72;;;4.63;;
27580;SDS011;15013;52.298;7.978;2022-08-04T17:46:33;9.32;;;4.18;;
27580;SDS011;15013;52.298;7.978;2022-08-04T17:56:49;9.48;;;4.88;;
27580;SDS011;15013;52.298;7.978;2022-08-04T18:06:51;11.63;;;4.10;;
27580;SDS011;15013;52.298;7.978;2022-08-04T18:16:53;11.13;;;4.53;;
27580;SDS011;15013;52.298;7.978;2022-08-04T18:21:53;9.88;;;4.70;;
27580;SDS011;15013;52.298;7.978;2022-08-04T18:26:53;14.03;;;4.73;;
27580;SDS011;15013;52.298;7.978;2022-08-04T18:31:54;12.80;;;5.03;;
27580;SDS011;15013;52.298;7.978;2022-08-04T18:36:54;11.33;;;5.10;;
27580;SDS011;15013;52.298;7.978;2022-08-04T18:41:55;12.05;;;5.03;;
27580;SDS011;15013;52.298;7.978;2022-08-04T18:46:55;5.80;;;4.20;;
27580;SDS011;15013;52.298;7.978;2022-08-04T18:51:56;6.15;;;4.60;;
27580;SDS011;15013;52.298;7.978;2022-08-04T18:56:57;9.98;;;5.18;;
27580;SDS011;15013;52.298;7.978;2022-08-04T19:01:57;9.33;;;5.30;;
27580;SDS011;15013;52.298;7.978;2022-08-04T19:06:57;9.33;;;5.30;;
27580;SDS011;15013;52.298;7.978;2022-08-04T19:11:58;9.63;;;5.83;;
27580;SDS011;15013;52.298;7.978;2022-08-04T19:16:58;12.20;;;5.63;;
27580;SDS011;15013;52.298;7.978;2022-08-04T19:21:58;10.33;;;5.93;;
27580;SDS011;15013;52.298;7.978;2022-08-04T19:26:59;10.83;;;5.83;;
27580;SDS011;15013;52.298;7.978;2022-08-04T19:32:01;9.38;;;7.53;;
27580;SDS011;15013;52.298;7.978;2022-08-04T19:37:01;9.47;;;6.10;;
27580;SDS011;15013;52.298;7.978;2022-08-04T19:42:02;8.97;;;5.80;;
27580;SDS011;15013;52.298;7.978;2022-08-04T19:47:02;13.77;;;6.97;;
27580;SDS011;15013;52.298;7.978;2022-08-04T19:52:02;14.05;;;7.25;;
27580;SDS011;15013;52.298;7.978;2022-08-04T19:57:03;16.55;;;6.57;;
27580;SDS011;15013;52.298;7.978;2022-08-04T20:02:03;10.30;;;5.30;;
27580;SDS011;15013;52.298;7.978;2022-08-04T20:07:04;12.43;;;3.92;;
27580;SDS011;15013;52.298;7.978;2022-08-04T20:12:04;7.97;;;3.33;;
27580;SDS011;15013;52.298;7.978;2022-08-04T20:17:05;4.67;;;2.90;;
27580;SDS011;15013;52.298;7.978;2022-08-04T20:22:06;5.15;;;2.88;;
27580;SDS011;15013;52.298;7.978;2022-08-04T20:27:06;5.50;;;2.65;;
27580;SDS011;15013;52.298;7.978;2022-08-04T20:32:07;10.67;;;2.87;;
27580;SDS011;15013;52.298;7.978;2022-08-04T20:37:08;4.10;;;2.42;;
27580;SDS011;15013;52.298;7.978;2022-08-04T20:42:08;4.93;;;2.53;;
27580;SDS011;15013;52.298;7.978;2022-08-04T20:47:08;5.43;;;2.30;;
27580;SDS011;15013;52.298;7.978;2022-08-04T20:52:09;4.53;;;2.43;;
27580;SDS011;15013;52.298;7.978;2022-08-04T20:57:09;5.93;;;2.72;;
27580;SDS011;15013;52.298;7.978;2022-08-04T21:02:10;7.03;;;2.97;;
27580;SDS011;15013;52.298;7.978;2022-08-04T21:07:10;8.27;;;3.27;;
27580;SDS011;15013;52.298;7.978;2022-08-04T21:12:11;7.90;;;2.60;;
27580;SDS011;15013;52.298;7.978;2022-08-04T21:17:13;6.70;;;2.65;;
27580;SDS011;15013;52.298;7.978;2022-08-04T21:22:13;5.05;;;2.63;;
27580;SDS011;15013;52.298;7.978;2022-08-04T21:27:15;5.20;;;2.67;;
27580;SDS011;15013;52.298;7.978;2022-08-04T21:32:16;5.73;;;3.37;;
27580;SDS011;15013;52.298;7.978;2022-08-04T21:37:16;7.47;;;2.70;;
27580;SDS011;15013;52.298;7.978;2022-08-04T21:42:16;5.43;;;2.93;;
27580;SDS011;15013;52.298;7.978;2022-08-04T21:47:17;4.80;;;2.80;;
27580;SDS011;15013;52.298;7.978;2022-08-04T21:52:17;5.63;;;2.93;;
27580;SDS011;15013;52.298;7.978;2022-08-04T21:57:18;4.90;;;2.73;;
27580;SDS011;15013;52.298;7.978;2022-08-04T22:02:18;6.57;;;3.33;;
27580;SDS011;15013;52.298;7.978;2022-08-04T22:07:18;5.83;;;3.23;;
27580;SDS011;15013;52.298;7.978;2022-08-04T22:12:19;6.00;;;2.60;;
27580;SDS011;15013;52.298;7.978;2022-08-04T22:17:19;8.03;;;3.87;;
27580;SDS011;15013;52.298;7.978;2022-08-04T22:22:19;10.57;;;3.57;;
27580;SDS011;15013;52.298;7.978;2022-08-04T22:27:20;10.97;;;3.50;;
27580;SDS011;15013;52.298;7.978;2022-08-04T22:32:38;11.30;;;3.67;;
27580;SDS011;15013;52.298;7.978;2022-08-04T22:37:39;12.80;;;3.70;;
27580;SDS011;15013;52.298;7.978;2022-08-04T22:42:39;8.13;;;3.60;;
27580;SDS011;15013;52.298;7.978;2022-08-04T22:47:40;8.63;;;4.68;;
27580;SDS011;15013;52.298;7.978;2022-08-04T22:52:40;7.80;;;4.33;;
27580;SDS011;15013;52.298;7.978;2022-08-04T22:57:40;9.70;;;4.10;;
27580;SDS011;15013;52.298;7.978;2022-08-04T23:02:41;14.13;;;4.77;;
27580;SDS011;15013;52.298;7.978;2022-08-04T23:07:41;8.03;;;4.30;;
27580;SDS011;15013;52.298;7.978;2022-08-04T23:12:41;8.23;;;3.60;;
27580;SDS011;15013;52.298;7.978;2022-08-04T23:17:42;8.03;;;3.77;;
27580;SDS011;15013;52.298;7.978;2022-08-04T23:22:42;10.87;;;4.50;;
27580;SDS011;15013;52.298;7.978;2022-08-04T23:27:46;8.30;;;4.93;;
27580;SDS011;15013;52.298;7.978;2022-08-04T23:32:46;15.43;;;5.65;;
27580;SDS011;15013;52.298;7.978;2022-08-04T23:37:47;13.38;;;5.88;;
27580;SDS011;15013;52.298;7.978;2022-08-04T23:42:47;22.37;;;5.63;;
27580;SDS011;15013;52.298;7.978;2022-08-04T23:47:47;7.87;;;5.30;;
27580;SDS011;15013;52.298;7.978;2022-08-04T23:52:48;14.57;;;5.68;;
27580;SDS011;15013;52.298;7.978;2022-08-04T23:57:48;16.97;;;6.67;;
